BarenTS Sea — 9VAP5 — position and weather

sailwx.info

Track history (hours):
 
Tides and Currents Weather Stations Pressure Air Temp Water Temp Dewpoint Dewpoint Depression Visibility Wind Speed Wind Dir Waves Ship Positions

BarenTS Sea

Last reported at 2014-Sep-02 19:32 UTC. Time now 2014-Sep-02 21:32 UTC.
Position N 37°55' E 009°20'.

Length 248 m; draft 12 m.

Type: Tanker. MMSI: 563909000.

Date/timePositionNaut miles runAvg speedWind from/ knotsBaromVisibWave heightAir tempDewpointWater temp
2014-Sep-02 19:32N 37°55' E 009°20'3110.0
2014-Sep-02 16:23N 37°57' E 009°59'17 9.3
2014-Sep-02 14:31N 37°49' E 010°19'9 8.9
2014-Sep-02 13:30N 37°45' E 010°29'212 8.4
2014-Sep-01 12:11N 36°14' E 014°29'6 9.6
2014-Sep-01 11:32N 36°13' E 014°37'  
2014-Aug-29 11:17N 32°46' E 029°04'1910.9
2014-Aug-29 09:32N 32°40' E 029°25'141 9.9
2014-Aug-28 19:19N 31°46' E 031°59'19 9.6
2014-Aug-28 17:22N 31°32' E 032°15'  
Track history (hours):
 
Tides and Currents Weather Stations Pressure Air Temp Water Temp Dewpoint Dewpoint Depression Visibility Wind Speed Wind Dir Waves Ship Positions

BarenTS Sea

Last reported at 2014-Sep-02 19:32 UTC. Time now 2014-Sep-02 21:32 UTC.
Position N 37°55' E 009°20'.

Length 248 m; draft 12 m.

Type: Tanker. MMSI: 563909000.

Date/timePositionNaut miles runAvg speedWind from/ knotsBaromVisibWave heightAir tempDewpointWater temp
2014-Sep-02 19:32N 37°55' E 009°20'3110.0
2014-Sep-02 16:23N 37°57' E 009°59'17 9.3
2014-Sep-02 14:31N 37°49' E 010°19'9 8.9
2014-Sep-02 13:30N 37°45' E 010°29'212 8.4
2014-Sep-01 12:11N 36°14' E 014°29'6 9.6
2014-Sep-01 11:32N 36°13' E 014°37'  
2014-Aug-29 11:17N 32°46' E 029°04'1910.9
2014-Aug-29 09:32N 32°40' E 029°25'141 9.9
2014-Aug-28 19:19N 31°46' E 031°59'19 9.6
2014-Aug-28 17:22N 31°32' E 032°15'  

Dump ship's entire track history